Strona główna
METAR-TAF:

METAR-TAF

Lotnisko :

Port lotniczy Mauritius

Mauritius, Mauritius

Szerokość geograficzna: 20-26S, Długość geograficzna: 057-40E, wysokość: 55 m

Aktualna obserwacja pogody

Raport powstał 1 godzina i 2 minut temu, godzina 05:00 UTC
Wiatr 7 kt od wschodnio-południowy wschód
Temperatura 29°C
Wilgotność 70%
Ciśnienie 1011 hPa
Widzialność 10 km lub więcej
Przerywane chmury na wysokości 1700 ft

METAR: FIMP 030500Z 12007KT 9999 BKN017 29/23 Q1011

czas: 10:02 (06:02 UTC)

Prognoza

Raport powstał 57 minut temu, godzina 05:05 UTC
Prognoza ważna od 03 godzina 06 UTC do 04 godzina 12 UTC
Wiatr 10 kt od południowy wschód
Widzialność 10 km lub więcej
Rozproszone chmury na wysokości 1700 ft
Prawdopodobieństwo 30% :
Przejściowo
od 03 godzina 07 UTC do 03 godzina 12 UTC
Widzialność: 7000 m
Mało chmury na wysokości 1000 ft
Przerywane chmury na wysokości 1500 ft
słaby przelotny opad deszczu

TAF: FIMP 030505Z 0306/0412 13010KT 9999 SCT017 PROB30 TEMPO 0307/0312 7000 -SHRA FEW010 BKN015

Obserwacja i prognoza pogody dla ponad 4000 lotnisk (raport METAR i TAF).

Dostępne stacje oznaczono żółtymi i czerwonymi punktami na mapie.

Najedź kursorem aby zobaczyć nazwę stacji.

Kliknij aby zobaczyć obserwacje i prognozy pogody.

Aby zmienić mapę: kliknij na zielony przycisk z czarnym krzyżykiem, aby powiększyć; na zielony przycisk z myślnikiem, aby pomniejszyć; na zielone strzałki, aby przejść do map sąsiednich.


METAR-TAF: